Garden City, New York
Current Conditions -  °F | °C
As of 4:51 AM on Sunday 23 Nov 2014 (Local Time) from KJFK Reporting Station
Overcast Overcast  
Wind Chill:   Ceiling: 11000
Heat Index:   Visibility: 10mi
Dew Point: -3°   Wind: 12mph
Humidity: 49%   Direction: 240°WSW
Pressure: 30.2"   Gusts: NA
Location:  40.73°N, 73.64°W
Report Text: KJFK 230951Z 24010KT 10SM OVC110 07/M03 A3020 RMK AO2 SLP227 T00671033 $
Loading
Personal Weather Stations






























Interactive Weather Map New forecast layout! Learn more

10-Day Weather Forecast

Advertisements
Track Severe Weather on mobile